sensor_id;sensor_type;location;lat;lon;timestamp;temperature;humidity
76168;DHT22;64927;48.214;16.378;2022-11-30T00:01:51;4.90;76.00
76168;DHT22;64927;48.214;16.378;2022-11-30T00:04:17;4.90;76.00
76168;DHT22;64927;48.214;16.378;2022-11-30T00:06:43;4.90;76.00
76168;DHT22;64927;48.214;16.378;2022-11-30T00:09:08;4.90;76.00
76168;DHT22;64927;48.214;16.378;2022-11-30T00:11:36;4.90;75.70
76168;DHT22;64927;48.214;16.378;2022-11-30T00:14:04;5.00;75.60
76168;DHT22;64927;48.214;16.378;2022-11-30T00:16:30;4.90;76.00
76168;DHT22;64927;48.214;16.378;2022-11-30T00:18:55;4.80;76.30
76168;DHT22;64927;48.214;16.378;2022-11-30T00:21:21;4.80;76.30
76168;DHT22;64927;48.214;16.378;2022-11-30T00:23:47;4.60;76.90
76168;DHT22;64927;48.214;16.378;2022-11-30T00:26:16;4.50;77.50
76168;DHT22;64927;48.214;16.378;2022-11-30T00:28:42;4.40;77.70
76168;DHT22;64927;48.214;16.378;2022-11-30T00:31:12;4.40;78.30
76168;DHT22;64927;48.214;16.378;2022-11-30T00:33:38;4.40;78.40
76168;DHT22;64927;48.214;16.378;2022-11-30T00:36:06;4.40;78.20
76168;DHT22;64927;48.214;16.378;2022-11-30T00:38:33;4.40;78.10
76168;DHT22;64927;48.214;16.378;2022-11-30T00:41:00;4.30;78.10
76168;DHT22;64927;48.214;16.378;2022-11-30T00:43:29;4.30;78.10
76168;DHT22;64927;48.214;16.378;2022-11-30T00:45:55;4.30;78.20
76168;DHT22;64927;48.214;16.378;2022-11-30T00:48:20;4.40;78.10
76168;DHT22;64927;48.214;16.378;2022-11-30T00:50:49;4.40;77.80
76168;DHT22;64927;48.214;16.378;2022-11-30T00:53:18;4.50;77.70
76168;DHT22;64927;48.214;16.378;2022-11-30T00:55:44;4.50;77.40
76168;DHT22;64927;48.214;16.378;2022-11-30T00:58:10;4.40;77.40
76168;DHT22;64927;48.214;16.378;2022-11-30T01:00:37;4.40;77.80
76168;DHT22;64927;48.214;16.378;2022-11-30T01:03:03;4.40;77.70
76168;DHT22;64927;48.214;16.378;2022-11-30T01:05:34;4.40;77.60
76168;DHT22;64927;48.214;16.378;2022-11-30T01:08:01;4.50;77.20
76168;DHT22;64927;48.214;16.378;2022-11-30T01:10:29;4.50;77.70
76168;DHT22;64927;48.214;16.378;2022-11-30T01:12:55;4.60;76.90
76168;DHT22;64927;48.214;16.378;2022-11-30T01:15:21;4.60;76.40
76168;DHT22;64927;48.214;16.378;2022-11-30T01:17:47;4.50;76.40
76168;DHT22;64927;48.214;16.378;2022-11-30T01:20:13;4.50;76.40
76168;DHT22;64927;48.214;16.378;2022-11-30T01:22:39;4.50;76.50
76168;DHT22;64927;48.214;16.378;2022-11-30T01:25:05;4.40;76.80
76168;DHT22;64927;48.214;16.378;2022-11-30T01:27:31;4.50;77.00
76168;DHT22;64927;48.214;16.378;2022-11-30T01:29:58;4.60;76.10
76168;DHT22;64927;48.214;16.378;2022-11-30T01:32:24;4.50;76.40
76168;DHT22;64927;48.214;16.378;2022-11-30T01:34:49;4.60;76.40
76168;DHT22;64927;48.214;16.378;2022-11-30T01:37:15;4.70;76.00
76168;DHT22;64927;48.214;16.378;2022-11-30T01:39:45;4.70;76.00
76168;DHT22;64927;48.214;16.378;2022-11-30T01:42:17;4.70;75.70
76168;DHT22;64927;48.214;16.378;2022-11-30T01:44:55;4.70;75.70
76168;DHT22;64927;48.214;16.378;2022-11-30T01:50:07;4.60;76.40
76168;DHT22;64927;48.214;16.378;2022-11-30T01:52:42;4.70;76.20
76168;DHT22;64927;48.214;16.378;2022-11-30T01:55:28;4.80;75.70
76168;DHT22;64927;48.214;16.378;2022-11-30T02:00:25;4.80;75.50
76168;DHT22;64927;48.214;16.378;2022-11-30T02:03:16;4.80;75.30
76168;DHT22;64927;48.214;16.378;2022-11-30T02:05:46;4.80;75.20
76168;DHT22;64927;48.214;16.378;2022-11-30T02:08:14;4.80;75.40
76168;DHT22;64927;48.214;16.378;2022-11-30T02:10:47;4.80;75.40
76168;DHT22;64927;48.214;16.378;2022-11-30T02:13:37;4.80;75.30
76168;DHT22;64927;48.214;16.378;2022-11-30T02:19:16;4.70;75.80
76168;DHT22;64927;48.214;16.378;2022-11-30T02:27:08;4.80;75.70
76168;DHT22;64927;48.214;16.378;2022-11-30T02:29:45;4.70;75.80
76168;DHT22;64927;48.214;16.378;2022-11-30T02:34:42;4.50;76.90
76168;DHT22;64927;48.214;16.378;2022-11-30T02:37:12;4.50;76.80
76168;DHT22;64927;48.214;16.378;2022-11-30T02:39:39;4.50;76.80
76168;DHT22;64927;48.214;16.378;2022-11-30T02:42:09;4.50;76.80
76168;DHT22;64927;48.214;16.378;2022-11-30T02:44:38;4.60;76.80
76168;DHT22;64927;48.214;16.378;2022-11-30T02:47:06;4.60;76.50
76168;DHT22;64927;48.214;16.378;2022-11-30T02:52:11;4.70;76.40
76168;DHT22;64927;48.214;16.378;2022-11-30T02:54:38;4.70;75.90
76168;DHT22;64927;48.214;16.378;2022-11-30T02:57:04;4.70;75.90
76168;DHT22;64927;48.214;16.378;2022-11-30T02:59:30;4.70;75.90
76168;DHT22;64927;48.214;16.378;2022-11-30T03:01:56;4.70;75.90
76168;DHT22;64927;48.214;16.378;2022-11-30T03:04:24;4.60;76.10
76168;DHT22;64927;48.214;16.378;2022-11-30T03:06:49;4.70;76.00
76168;DHT22;64927;48.214;16.378;2022-11-30T03:09:17;4.70;75.90
76168;DHT22;64927;48.214;16.378;2022-11-30T03:11:43;4.80;76.00
76168;DHT22;64927;48.214;16.378;2022-11-30T03:14:08;4.90;75.30
76168;DHT22;64927;48.214;16.378;2022-11-30T03:16:36;5.00;74.90
76168;DHT22;64927;48.214;16.378;2022-11-30T03:19:01;4.90;74.80
76168;DHT22;64927;48.214;16.378;2022-11-30T03:21:27;4.90;75.00
76168;DHT22;64927;48.214;16.378;2022-11-30T03:23:53;4.80;75.10
76168;DHT22;64927;48.214;16.378;2022-11-30T03:26:21;4.80;75.00
76168;DHT22;64927;48.214;16.378;2022-11-30T03:28:47;4.80;75.20
76168;DHT22;64927;48.214;16.378;2022-11-30T03:31:13;4.80;75.20
76168;DHT22;64927;48.214;16.378;2022-11-30T03:33:42;4.70;75.30
76168;DHT22;64927;48.214;16.378;2022-11-30T03:36:09;4.70;75.50
76168;DHT22;64927;48.214;16.378;2022-11-30T03:38:36;4.70;75.70
76168;DHT22;64927;48.214;16.378;2022-11-30T03:41:07;4.70;76.00
76168;DHT22;64927;48.214;16.378;2022-11-30T03:43:37;4.80;75.30
76168;DHT22;64927;48.214;16.378;2022-11-30T03:46:03;4.80;75.30
76168;DHT22;64927;48.214;16.378;2022-11-30T03:48:28;4.70;75.50
76168;DHT22;64927;48.214;16.378;2022-11-30T03:50:55;4.70;75.90
76168;DHT22;64927;48.214;16.378;2022-11-30T03:53:22;4.80;75.70
76168;DHT22;64927;48.214;16.378;2022-11-30T03:55:55;4.80;75.50
76168;DHT22;64927;48.214;16.378;2022-11-30T03:58:22;4.80;75.20
76168;DHT22;64927;48.214;16.378;2022-11-30T04:00:47;4.80;75.10
76168;DHT22;64927;48.214;16.378;2022-11-30T04:03:13;4.80;75.10
76168;DHT22;64927;48.214;16.378;2022-11-30T04:05:39;4.90;75.10
76168;DHT22;64927;48.214;16.378;2022-11-30T04:08:05;4.80;74.90
76168;DHT22;64927;48.214;16.378;2022-11-30T04:10:30;4.80;75.10
76168;DHT22;64927;48.214;16.378;2022-11-30T04:12:56;4.90;75.00
76168;DHT22;64927;48.214;16.378;2022-11-30T04:15:22;4.80;75.10
76168;DHT22;64927;48.214;16.378;2022-11-30T04:17:47;4.80;74.90
76168;DHT22;64927;48.214;16.378;2022-11-30T04:20:13;4.70;75.20
76168;DHT22;64927;48.214;16.378;2022-11-30T04:22:39;4.80;76.20
76168;DHT22;64927;48.214;16.378;2022-11-30T04:25:05;4.70;75.30
76168;DHT22;64927;48.214;16.378;2022-11-30T04:27:31;4.80;75.30
76168;DHT22;64927;48.214;16.378;2022-11-30T04:29:56;4.80;75.10
76168;DHT22;64927;48.214;16.378;2022-11-30T04:32:22;4.70;75.10
76168;DHT22;64927;48.214;16.378;2022-11-30T04:34:47;4.70;75.20
76168;DHT22;64927;48.214;16.378;2022-11-30T04:37:13;4.70;75.70
76168;DHT22;64927;48.214;16.378;2022-11-30T04:39:41;4.80;75.60
76168;DHT22;64927;48.214;16.378;2022-11-30T04:42:06;4.90;74.80
76168;DHT22;64927;48.214;16.378;2022-11-30T04:44:32;4.90;74.60
76168;DHT22;64927;48.214;16.378;2022-11-30T04:46:57;5.00;74.80
76168;DHT22;64927;48.214;16.378;2022-11-30T04:49:23;5.10;74.30
76168;DHT22;64927;48.214;16.378;2022-11-30T04:51:49;5.10;73.90
76168;DHT22;64927;48.214;16.378;2022-11-30T04:54:14;5.10;73.80
76168;DHT22;64927;48.214;16.378;2022-11-30T04:56:40;5.20;73.90
76168;DHT22;64927;48.214;16.378;2022-11-30T04:59:08;5.30;73.80
76168;DHT22;64927;48.214;16.378;2022-11-30T05:01:33;5.30;73.50
76168;DHT22;64927;48.214;16.378;2022-11-30T05:03:59;5.30;73.00
76168;DHT22;64927;48.214;16.378;2022-11-30T05:06:27;5.30;73.10
76168;DHT22;64927;48.214;16.378;2022-11-30T05:08:55;5.40;73.10
76168;DHT22;64927;48.214;16.378;2022-11-30T05:11:21;5.40;73.30
76168;DHT22;64927;48.214;16.378;2022-11-30T05:13:51;5.30;72.80
76168;DHT22;64927;48.214;16.378;2022-11-30T05:16:16;5.40;72.90
76168;DHT22;64927;48.214;16.378;2022-11-30T05:18:42;5.20;73.40
76168;DHT22;64927;48.214;16.378;2022-11-30T05:21:08;5.10;74.20
76168;DHT22;64927;48.214;16.378;2022-11-30T05:23:33;5.00;74.30
76168;DHT22;64927;48.214;16.378;2022-11-30T05:26:03;5.20;74.40
76168;DHT22;64927;48.214;16.378;2022-11-30T05:28:31;5.20;73.70
76168;DHT22;64927;48.214;16.378;2022-11-30T05:31:02;5.10;74.40
76168;DHT22;64927;48.214;16.378;2022-11-30T05:33:28;5.20;73.80
76168;DHT22;64927;48.214;16.378;2022-11-30T05:35:53;5.20;74.20
76168;DHT22;64927;48.214;16.378;2022-11-30T05:38:21;5.20;73.90
76168;DHT22;64927;48.214;16.378;2022-11-30T05:40:49;5.10;73.90
76168;DHT22;64927;48.214;16.378;2022-11-30T05:43:17;5.10;73.90
76168;DHT22;64927;48.214;16.378;2022-11-30T05:45:43;5.20;73.90
76168;DHT22;64927;48.214;16.378;2022-11-30T05:48:09;5.20;73.70
76168;DHT22;64927;48.214;16.378;2022-11-30T05:50:34;5.10;73.80
76168;DHT22;64927;48.214;16.378;2022-11-30T05:53:00;5.10;74.00
76168;DHT22;64927;48.214;16.378;2022-11-30T05:55:27;5.10;74.00
76168;DHT22;64927;48.214;16.378;2022-11-30T05:57:53;5.20;74.00
76168;DHT22;64927;48.214;16.378;2022-11-30T06:00:20;5.30;73.80
76168;DHT22;64927;48.214;16.378;2022-11-30T06:02:54;5.30;73.70
76168;DHT22;64927;48.214;16.378;2022-11-30T06:05:22;5.20;73.40
76168;DHT22;64927;48.214;16.378;2022-11-30T06:07:50;5.30;73.50
76168;DHT22;64927;48.214;16.378;2022-11-30T06:10:16;5.30;73.70
76168;DHT22;64927;48.214;16.378;2022-11-30T06:12:45;5.30;73.60
76168;DHT22;64927;48.214;16.378;2022-11-30T06:15:11;5.40;73.40
76168;DHT22;64927;48.214;16.378;2022-11-30T06:17:39;5.40;73.10
76168;DHT22;64927;48.214;16.378;2022-11-30T06:20:06;5.40;73.40
76168;DHT22;64927;48.214;16.378;2022-11-30T06:22:32;5.40;73.50
76168;DHT22;64927;48.214;16.378;2022-11-30T06:24:57;5.60;73.10
76168;DHT22;64927;48.214;16.378;2022-11-30T06:27:23;5.60;72.70
76168;DHT22;64927;48.214;16.378;2022-11-30T06:29:49;5.40;73.00
76168;DHT22;64927;48.214;16.378;2022-11-30T06:32:16;5.40;73.60
76168;DHT22;64927;48.214;16.378;2022-11-30T06:34:42;5.50;73.50
76168;DHT22;64927;48.214;16.378;2022-11-30T06:37:08;5.40;73.10
76168;DHT22;64927;48.214;16.378;2022-11-30T06:39:33;5.40;73.10
76168;DHT22;64927;48.214;16.378;2022-11-30T06:41:59;5.40;73.20
76168;DHT22;64927;48.214;16.378;2022-11-30T06:44:24;5.50;73.40
76168;DHT22;64927;48.214;16.378;2022-11-30T06:46:52;5.60;72.80
76168;DHT22;64927;48.214;16.378;2022-11-30T06:49:17;5.60;72.90
76168;DHT22;64927;48.214;16.378;2022-11-30T06:51:43;5.50;72.70
76168;DHT22;64927;48.214;16.378;2022-11-30T06:54:09;5.60;72.80
76168;DHT22;64927;48.214;16.378;2022-11-30T06:56:34;5.80;72.80
76168;DHT22;64927;48.214;16.378;2022-11-30T06:59:00;5.80;72.20
76168;DHT22;64927;48.214;16.378;2022-11-30T07:01:28;5.80;72.40
76168;DHT22;64927;48.214;16.378;2022-11-30T07:03:53;5.80;72.00
76168;DHT22;64927;48.214;16.378;2022-11-30T07:06:19;5.70;72.20
76168;DHT22;64927;48.214;16.378;2022-11-30T07:08:44;5.70;73.00
76168;DHT22;64927;48.214;16.378;2022-11-30T07:11:11;5.70;72.20
76168;DHT22;64927;48.214;16.378;2022-11-30T07:13:37;5.70;72.40
76168;DHT22;64927;48.214;16.378;2022-11-30T07:16:06;5.60;72.70
76168;DHT22;64927;48.214;16.378;2022-11-30T07:18:33;5.70;72.80
76168;DHT22;64927;48.214;16.378;2022-11-30T07:21:00;5.80;72.50
76168;DHT22;64927;48.214;16.378;2022-11-30T07:23:26;5.80;71.80
76168;DHT22;64927;48.214;16.378;2022-11-30T07:26:11;5.90;72.00
76168;DHT22;64927;48.214;16.378;2022-11-30T07:28:42;6.00;71.90
76168;DHT22;64927;48.214;16.378;2022-11-30T07:31:28;6.00;71.50
76168;DHT22;64927;48.214;16.378;2022-11-30T07:34:01;5.90;71.80
76168;DHT22;64927;48.214;16.378;2022-11-30T07:36:28;6.00;72.20
76168;DHT22;64927;48.214;16.378;2022-11-30T07:38:57;5.80;71.70
76168;DHT22;64927;48.214;16.378;2022-11-30T07:41:23;5.70;72.20
76168;DHT22;64927;48.214;16.378;2022-11-30T07:43:51;5.70;73.10
76168;DHT22;64927;48.214;16.378;2022-11-30T07:46:16;5.80;73.30
76168;DHT22;64927;48.214;16.378;2022-11-30T07:48:43;5.80;72.90
76168;DHT22;64927;48.214;16.378;2022-11-30T07:51:15;5.70;73.30
76168;DHT22;64927;48.214;16.378;2022-11-30T07:53:41;5.70;73.40
76168;DHT22;64927;48.214;16.378;2022-11-30T07:56:10;5.70;73.10
76168;DHT22;64927;48.214;16.378;2022-11-30T07:58:36;5.80;73.10
76168;DHT22;64927;48.214;16.378;2022-11-30T08:01:07;5.80;72.80
76168;DHT22;64927;48.214;16.378;2022-11-30T08:03:33;5.80;73.20
76168;DHT22;64927;48.214;16.378;2022-11-30T08:06:04;5.70;72.90
76168;DHT22;64927;48.214;16.378;2022-11-30T08:08:32;5.70;73.30
76168;DHT22;64927;48.214;16.378;2022-11-30T08:10:59;5.80;73.20
76168;DHT22;64927;48.214;16.378;2022-11-30T08:13:25;5.90;72.40
76168;DHT22;64927;48.214;16.378;2022-11-30T08:15:51;5.90;73.10
76168;DHT22;64927;48.214;16.378;2022-11-30T08:18:19;6.00;72.80
76168;DHT22;64927;48.214;16.378;2022-11-30T08:20:47;6.10;71.70
76168;DHT22;64927;48.214;16.378;2022-11-30T08:23:13;6.10;71.70
76168;DHT22;64927;48.214;16.378;2022-11-30T08:25:40;6.10;71.50
76168;DHT22;64927;48.214;16.378;2022-11-30T08:28:08;6.20;71.50
76168;DHT22;64927;48.214;16.378;2022-11-30T08:30:34;6.40;71.50
76168;DHT22;64927;48.214;16.378;2022-11-30T08:33:00;6.40;71.50
76168;DHT22;64927;48.214;16.378;2022-11-30T08:35:25;6.30;71.70
76168;DHT22;64927;48.214;16.378;2022-11-30T08:37:51;6.20;71.70
76168;DHT22;64927;48.214;16.378;2022-11-30T08:40:17;6.30;71.80
76168;DHT22;64927;48.214;16.378;2022-11-30T08:42:42;6.20;71.90
76168;DHT22;64927;48.214;16.378;2022-11-30T08:45:08;6.40;72.30
76168;DHT22;64927;48.214;16.378;2022-11-30T08:47:34;6.50;71.80
76168;DHT22;64927;48.214;16.378;2022-11-30T08:49:59;6.40;71.00
76168;DHT22;64927;48.214;16.378;2022-11-30T08:52:26;6.50;71.10
76168;DHT22;64927;48.214;16.378;2022-11-30T08:54:58;6.60;70.80
76168;DHT22;64927;48.214;16.378;2022-11-30T08:57:23;6.70;70.20
76168;DHT22;64927;48.214;16.378;2022-11-30T08:59:53;6.60;70.30
76168;DHT22;64927;48.214;16.378;2022-11-30T09:02:19;6.80;70.60
76168;DHT22;64927;48.214;16.378;2022-11-30T09:04:48;7.10;70.00
76168;DHT22;64927;48.214;16.378;2022-11-30T09:07:15;7.10;68.80
76168;DHT22;64927;48.214;16.378;2022-11-30T09:09:41;7.00;68.90
76168;DHT22;64927;48.214;16.378;2022-11-30T09:12:06;6.90;68.30
76168;DHT22;64927;48.214;16.378;2022-11-30T09:14:32;6.80;68.70
76168;DHT22;64927;48.214;16.378;2022-11-30T09:16:58;6.90;69.00
76168;DHT22;64927;48.214;16.378;2022-11-30T09:19:24;7.00;69.00
76168;DHT22;64927;48.214;16.378;2022-11-30T09:21:50;7.00;68.70
76168;DHT22;64927;48.214;16.378;2022-11-30T09:24:15;7.00;68.60
76168;DHT22;64927;48.214;16.378;2022-11-30T09:26:41;6.80;68.40
76168;DHT22;64927;48.214;16.378;2022-11-30T09:29:07;6.70;68.80
76168;DHT22;64927;48.214;16.378;2022-11-30T09:31:32;6.70;68.90
76168;DHT22;64927;48.214;16.378;2022-11-30T09:34:16;6.70;69.50
76168;DHT22;64927;48.214;16.378;2022-11-30T09:36:42;6.80;69.50
76168;DHT22;64927;48.214;16.378;2022-11-30T09:39:09;6.90;69.20
76168;DHT22;64927;48.214;16.378;2022-11-30T09:44:41;7.10;68.70
76168;DHT22;64927;48.214;16.378;2022-11-30T09:47:52;7.10;67.80
76168;DHT22;64927;48.214;16.378;2022-11-30T09:50:23;7.20;68.20
76168;DHT22;64927;48.214;16.378;2022-11-30T09:53:02;7.40;67.40
76168;DHT22;64927;48.214;16.378;2022-11-30T09:55:32;7.40;66.30
76168;DHT22;64927;48.214;16.378;2022-11-30T09:58:10;7.40;67.20
76168;DHT22;64927;48.214;16.378;2022-11-30T10:00:42;7.30;67.20
76168;DHT22;64927;48.214;16.378;2022-11-30T10:03:12;7.40;67.50
76168;DHT22;64927;48.214;16.378;2022-11-30T10:05:58;7.50;66.40
76168;DHT22;64927;48.214;16.378;2022-11-30T10:25:28;7.70;66.40
76168;DHT22;64927;48.214;16.378;2022-11-30T10:30:48;7.70;65.10
76168;DHT22;64927;48.214;16.378;2022-11-30T10:33:18;7.50;65.30
76168;DHT22;64927;48.214;16.378;2022-11-30T10:35:49;7.50;65.90
76168;DHT22;64927;48.214;16.378;2022-11-30T10:38:18;7.60;66.00
76168;DHT22;64927;48.214;16.378;2022-11-30T10:40:58;7.70;65.30
76168;DHT22;64927;48.214;16.378;2022-11-30T10:46:24;7.80;64.80
76168;DHT22;64927;48.214;16.378;2022-11-30T10:49:17;7.80;64.70
76168;DHT22;64927;48.214;16.378;2022-11-30T10:51:51;7.80;65.20
76168;DHT22;64927;48.214;16.378;2022-11-30T10:54:20;8.00;64.80
76168;DHT22;64927;48.214;16.378;2022-11-30T10:56:47;7.90;63.40
76168;DHT22;64927;48.214;16.378;2022-11-30T11:01:52;8.00;63.50
76168;DHT22;64927;48.214;16.378;2022-11-30T11:09:33;8.10;62.70
76168;DHT22;64927;48.214;16.378;2022-11-30T11:12:05;8.10;62.50
76168;DHT22;64927;48.214;16.378;2022-11-30T11:14:31;8.10;63.00
76168;DHT22;64927;48.214;16.378;2022-11-30T11:17:02;8.10;62.10
76168;DHT22;64927;48.214;16.378;2022-11-30T11:19:40;8.20;62.10
76168;DHT22;64927;48.214;16.378;2022-11-30T11:22:23;8.20;61.80
76168;DHT22;64927;48.214;16.378;2022-11-30T11:27:53;8.20;62.10
76168;DHT22;64927;48.214;16.378;2022-11-30T11:30:29;8.10;62.50
76168;DHT22;64927;48.214;16.378;2022-11-30T11:33:00;8.40;61.80
76168;DHT22;64927;48.214;16.378;2022-11-30T11:35:40;8.50;60.70
76168;DHT22;64927;48.214;16.378;2022-11-30T11:43:17;8.60;59.20
76168;DHT22;64927;48.214;16.378;2022-11-30T11:45:52;8.20;59.20
76168;DHT22;64927;48.214;16.378;2022-11-30T11:48:28;8.10;61.10
76168;DHT22;64927;48.214;16.378;2022-11-30T11:51:01;8.00;59.70
76168;DHT22;64927;48.214;16.378;2022-11-30T11:53:42;8.00;60.80
76168;DHT22;64927;48.214;16.378;2022-11-30T11:56:33;8.30;60.80
76168;DHT22;64927;48.214;16.378;2022-11-30T12:05:00;8.30;59.00
76168;DHT22;64927;48.214;16.378;2022-11-30T12:07:49;8.40;59.40
76168;DHT22;64927;48.214;16.378;2022-11-30T12:12:53;8.70;57.70
76168;DHT22;64927;48.214;16.378;2022-11-30T12:15:25;8.90;58.20
76168;DHT22;64927;48.214;16.378;2022-11-30T12:18:01;8.90;57.80
76168;DHT22;64927;48.214;16.378;2022-11-30T12:20:38;9.00;57.70
76168;DHT22;64927;48.214;16.378;2022-11-30T12:26:03;8.30;57.00
76168;DHT22;64927;48.214;16.378;2022-11-30T12:36:52;8.90;56.20
76168;DHT22;64927;48.214;16.378;2022-11-30T12:39:43;8.90;55.40
76168;DHT22;64927;48.214;16.378;2022-11-30T12:42:17;8.60;56.30
76168;DHT22;64927;48.214;16.378;2022-11-30T12:45:16;8.70;56.10
76168;DHT22;64927;48.214;16.378;2022-11-30T12:50:39;8.90;56.00
76168;DHT22;64927;48.214;16.378;2022-11-30T12:53:40;9.10;55.90
76168;DHT22;64927;48.214;16.378;2022-11-30T12:59:31;8.90;55.10
76168;DHT22;64927;48.214;16.378;2022-11-30T13:05:09;9.10;55.20
76168;DHT22;64927;48.214;16.378;2022-11-30T13:07:42;9.10;55.60
76168;DHT22;64927;48.214;16.378;2022-11-30T13:10:36;9.00;56.30
76168;DHT22;64927;48.214;16.378;2022-11-30T13:13:20;8.70;56.80
76168;DHT22;64927;48.214;16.378;2022-11-30T13:15:50;8.80;56.50
76168;DHT22;64927;48.214;16.378;2022-11-30T13:18:19;8.60;57.20
76168;DHT22;64927;48.214;16.378;2022-11-30T13:23:46;8.90;56.40
76168;DHT22;64927;48.214;16.378;2022-11-30T13:32:20;8.80;57.10
76168;DHT22;64927;48.214;16.378;2022-11-30T13:34:49;8.80;56.50
76168;DHT22;64927;48.214;16.378;2022-11-30T13:37:20;8.90;56.00
76168;DHT22;64927;48.214;16.378;2022-11-30T13:39:58;8.80;57.20
76168;DHT22;64927;48.214;16.378;2022-11-30T13:42:35;8.60;56.10
76168;DHT22;64927;48.214;16.378;2022-11-30T13:47:58;8.70;56.10
76168;DHT22;64927;48.214;16.378;2022-11-30T13:50:37;8.70;56.70
76168;DHT22;64927;48.214;16.378;2022-11-30T13:56:02;8.70;57.10
76168;DHT22;64927;48.214;16.378;2022-11-30T13:58:33;8.60;57.30
76168;DHT22;64927;48.214;16.378;2022-11-30T14:03:32;8.60;57.60
76168;DHT22;64927;48.214;16.378;2022-11-30T14:05:59;8.50;57.60
76168;DHT22;64927;48.214;16.378;2022-11-30T14:08:34;8.60;57.80
76168;DHT22;64927;48.214;16.378;2022-11-30T14:14:40;8.70;58.30
76168;DHT22;64927;48.214;16.378;2022-11-30T14:17:23;8.70;57.80
76168;DHT22;64927;48.214;16.378;2022-11-30T14:22:40;8.70;57.90
76168;DHT22;64927;48.214;16.378;2022-11-30T14:25:18;8.40;58.00
76168;DHT22;64927;48.214;16.378;2022-11-30T14:27:46;8.40;58.80
76168;DHT22;64927;48.214;16.378;2022-11-30T14:30:22;8.60;58.20
76168;DHT22;64927;48.214;16.378;2022-11-30T14:32:56;8.60;58.20
76168;DHT22;64927;48.214;16.378;2022-11-30T14:35:28;8.70;57.80
76168;DHT22;64927;48.214;16.378;2022-11-30T14:37:59;8.70;58.10
76168;DHT22;64927;48.214;16.378;2022-11-30T14:40:27;8.80;58.00
76168;DHT22;64927;48.214;16.378;2022-11-30T14:43:01;8.90;57.90
76168;DHT22;64927;48.214;16.378;2022-11-30T14:45:30;8.90;57.90
76168;DHT22;64927;48.214;16.378;2022-11-30T14:50:45;8.60;58.60
76168;DHT22;64927;48.214;16.378;2022-11-30T14:53:52;8.70;58.80
76168;DHT22;64927;48.214;16.378;2022-11-30T15:01:59;8.60;59.20
76168;DHT22;64927;48.214;16.378;2022-11-30T15:04:27;8.80;59.10
76168;DHT22;64927;48.214;16.378;2022-11-30T15:06:54;8.80;59.00
76168;DHT22;64927;48.214;16.378;2022-11-30T15:09:27;8.80;59.40
76168;DHT22;64927;48.214;16.378;2022-11-30T15:11:57;8.70;59.80
76168;DHT22;64927;48.214;16.378;2022-11-30T15:14:23;8.70;59.70
76168;DHT22;64927;48.214;16.378;2022-11-30T15:16:53;8.70;59.70
76168;DHT22;64927;48.214;16.378;2022-11-30T15:19:28;8.80;59.60
76168;DHT22;64927;48.214;16.378;2022-11-30T15:21:54;8.90;59.40
76168;DHT22;64927;48.214;16.378;2022-11-30T15:24:21;8.90;59.40
76168;DHT22;64927;48.214;16.378;2022-11-30T15:29:34;8.80;59.00
76168;DHT22;64927;48.214;16.378;2022-11-30T15:32:03;8.80;59.20
76168;DHT22;64927;48.214;16.378;2022-11-30T15:37:17;8.90;58.90
76168;DHT22;64927;48.214;16.378;2022-11-30T15:39:55;8.70;58.90
76168;DHT22;64927;48.214;16.378;2022-11-30T15:42:31;8.70;59.20
76168;DHT22;64927;48.214;16.378;2022-11-30T15:45:24;8.60;59.50
76168;DHT22;64927;48.214;16.378;2022-11-30T15:47:52;8.50;59.90
76168;DHT22;64927;48.214;16.378;2022-11-30T15:55:48;8.40;60.80
76168;DHT22;64927;48.214;16.378;2022-11-30T16:01:15;8.50;60.30
76168;DHT22;64927;48.214;16.378;2022-11-30T16:06:34;8.40;60.70
76168;DHT22;64927;48.214;16.378;2022-11-30T16:09:21;8.40;60.80
76168;DHT22;64927;48.214;16.378;2022-11-30T16:11:54;8.30;61.00
76168;DHT22;64927;48.214;16.378;2022-11-30T16:14:21;8.40;60.80
76168;DHT22;64927;48.214;16.378;2022-11-30T16:16:48;8.30;60.80
76168;DHT22;64927;48.214;16.378;2022-11-30T16:19:16;8.40;60.80
76168;DHT22;64927;48.214;16.378;2022-11-30T16:21:42;8.40;60.70
76168;DHT22;64927;48.214;16.378;2022-11-30T16:24:12;8.50;60.60
76168;DHT22;64927;48.214;16.378;2022-11-30T16:26:41;8.50;60.30
76168;DHT22;64927;48.214;16.378;2022-11-30T16:29:09;8.40;60.10
76168;DHT22;64927;48.214;16.378;2022-11-30T16:31:34;8.40;60.30
76168;DHT22;64927;48.214;16.378;2022-11-30T16:34:03;8.40;60.40
76168;DHT22;64927;48.214;16.378;2022-11-30T16:36:29;8.20;60.70
76168;DHT22;64927;48.214;16.378;2022-11-30T16:38:56;8.20;60.80
76168;DHT22;64927;48.214;16.378;2022-11-30T16:41:26;8.20;61.00
76168;DHT22;64927;48.214;16.378;2022-11-30T16:43:54;8.30;61.00
76168;DHT22;64927;48.214;16.378;2022-11-30T16:46:28;8.20;60.80
76168;DHT22;64927;48.214;16.378;2022-11-30T16:48:54;8.40;60.70
76168;DHT22;64927;48.214;16.378;2022-11-30T16:51:28;8.40;60.40
76168;DHT22;64927;48.214;16.378;2022-11-30T16:53:57;8.40;60.50
76168;DHT22;64927;48.214;16.378;2022-11-30T16:56:23;8.30;60.70
76168;DHT22;64927;48.214;16.378;2022-11-30T16:58:49;8.40;60.90
76168;DHT22;64927;48.214;16.378;2022-11-30T17:01:30;8.40;61.00
76168;DHT22;64927;48.214;16.378;2022-11-30T17:03:57;8.30;61.10
76168;DHT22;64927;48.214;16.378;2022-11-30T17:06:26;8.40;61.10
76168;DHT22;64927;48.214;16.378;2022-11-30T17:08:52;8.50;61.00
76168;DHT22;64927;48.214;16.378;2022-11-30T17:11:33;8.40;60.90
76168;DHT22;64927;48.214;16.378;2022-11-30T17:14:20;8.40;61.30
76168;DHT22;64927;48.214;16.378;2022-11-30T17:16:47;8.40;61.40
76168;DHT22;64927;48.214;16.378;2022-11-30T17:19:14;8.40;61.00
76168;DHT22;64927;48.214;16.378;2022-11-30T17:21:41;8.30;61.50
76168;DHT22;64927;48.214;16.378;2022-11-30T17:24:09;8.20;61.90
76168;DHT22;64927;48.214;16.378;2022-11-30T17:26:38;8.40;61.70
76168;DHT22;64927;48.214;16.378;2022-11-30T17:29:04;8.50;61.40
76168;DHT22;64927;48.214;16.378;2022-11-30T17:31:30;8.60;60.90
76168;DHT22;64927;48.214;16.378;2022-11-30T17:33:57;8.50;61.00
76168;DHT22;64927;48.214;16.378;2022-11-30T17:36:22;8.40;61.60
76168;DHT22;64927;48.214;16.378;2022-11-30T17:38:49;8.40;61.80
76168;DHT22;64927;48.214;16.378;2022-11-30T17:41:18;8.40;61.50
76168;DHT22;64927;48.214;16.378;2022-11-30T17:43:44;8.50;61.40
76168;DHT22;64927;48.214;16.378;2022-11-30T17:46:16;8.50;61.30
76168;DHT22;64927;48.214;16.378;2022-11-30T17:48:43;8.30;61.50
76168;DHT22;64927;48.214;16.378;2022-11-30T17:51:11;8.30;61.50
76168;DHT22;64927;48.214;16.378;2022-11-30T17:53:41;8.40;61.50
76168;DHT22;64927;48.214;16.378;2022-11-30T17:56:16;8.30;61.40
76168;DHT22;64927;48.214;16.378;2022-11-30T17:58:43;8.20;61.60
76168;DHT22;64927;48.214;16.378;2022-11-30T18:01:22;8.20;62.00
76168;DHT22;64927;48.214;16.378;2022-11-30T18:03:49;8.20;62.00